sensor_id;sensor_type;location;lat;lon;timestamp;P1;durP1;ratioP1;P2;durP2;ratioP2
25639;SDS011;13497;48.322;16.204;2022-08-21T14:43:19;1.05;;;0.93;;
25639;SDS011;13497;48.322;16.204;2022-08-21T14:48:11;1.10;;;0.65;;
25639;SDS011;13497;48.322;16.204;2022-08-21T14:50:37;0.50;;;0.47;;
25639;SDS011;13497;48.322;16.204;2022-08-21T14:53:03;0.82;;;0.82;;
25639;SDS011;13497;48.322;16.204;2022-08-21T14:55:30;1.60;;;0.80;;
25639;SDS011;13497;48.322;16.204;2022-08-21T14:58:16;0.70;;;0.70;;
25639;SDS011;13497;48.322;16.204;2022-08-21T15:00:42;2.72;;;0.70;;
25639;SDS011;13497;48.322;16.204;2022-08-21T15:03:07;1.17;;;0.70;;
25639;SDS011;13497;48.322;16.204;2022-08-21T15:05:33;1.30;;;0.73;;
25639;SDS011;13497;48.322;16.204;2022-08-21T15:07:59;0.70;;;0.70;;
25639;SDS011;13497;48.322;16.204;2022-08-21T15:10:24;0.65;;;0.65;;
25639;SDS011;13497;48.322;16.204;2022-08-21T15:12:50;1.17;;;0.75;;
25639;SDS011;13497;48.322;16.204;2022-08-21T15:15:16;1.85;;;0.85;;
25639;SDS011;13497;48.322;16.204;2022-08-21T15:17:42;0.60;;;0.60;;
25639;SDS011;13497;48.322;16.204;2022-08-21T15:20:07;0.45;;;0.45;;
25639;SDS011;13497;48.322;16.204;2022-08-21T15:22:34;1.08;;;0.93;;
25639;SDS011;13497;48.322;16.204;2022-08-21T15:25:00;0.70;;;0.63;;
25639;SDS011;13497;48.322;16.204;2022-08-21T15:27:26;1.02;;;0.82;;
25639;SDS011;13497;48.322;16.204;2022-08-21T15:29:53;0.90;;;0.90;;
25639;SDS011;13497;48.322;16.204;2022-08-21T15:32:26;3.72;;;1.10;;
25639;SDS011;13497;48.322;16.204;2022-08-21T15:34:54;1.45;;;0.95;;
25639;SDS011;13497;48.322;16.204;2022-08-21T15:37:21;1.23;;;0.80;;
25639;SDS011;13497;48.322;16.204;2022-08-21T15:39:48;1.00;;;0.90;;
25639;SDS011;13497;48.322;16.204;2022-08-21T15:42:15;0.95;;;0.90;;
25639;SDS011;13497;48.322;16.204;2022-08-21T15:44:42;0.93;;;0.77;;
25639;SDS011;13497;48.322;16.204;2022-08-21T15:47:11;1.67;;;0.88;;
25639;SDS011;13497;48.322;16.204;2022-08-21T15:49:42;1.83;;;0.80;;
25639;SDS011;13497;48.322;16.204;2022-08-21T15:52:10;0.98;;;0.85;;
25639;SDS011;13497;48.322;16.204;2022-08-21T15:54:37;1.27;;;0.70;;
25639;SDS011;13497;48.322;16.204;2022-08-21T15:57:03;1.95;;;1.20;;
25639;SDS011;13497;48.322;16.204;2022-08-21T15:59:28;2.05;;;0.70;;
25639;SDS011;13497;48.322;16.204;2022-08-21T16:02:02;1.15;;;1.05;;
25639;SDS011;13497;48.322;16.204;2022-08-21T16:04:28;2.17;;;1.10;;
25639;SDS011;13497;48.322;16.204;2022-08-21T16:06:54;1.63;;;0.97;;
25639;SDS011;13497;48.322;16.204;2022-08-21T16:09:20;0.85;;;0.75;;
25639;SDS011;13497;48.322;16.204;2022-08-21T16:11:46;0.77;;;0.77;;
25639;SDS011;13497;48.322;16.204;2022-08-21T16:14:12;1.02;;;0.80;;
25639;SDS011;13497;48.322;16.204;2022-08-21T16:16:40;2.25;;;0.90;;
25639;SDS011;13497;48.322;16.204;2022-08-21T16:19:06;0.85;;;0.75;;
25639;SDS011;13497;48.322;16.204;2022-08-21T16:21:33;1.20;;;0.85;;
25639;SDS011;13497;48.322;16.204;2022-08-21T16:26:24;1.40;;;1.15;;
25639;SDS011;13497;48.322;16.204;2022-08-21T16:31:19;1.98;;;1.33;;
25639;SDS011;13497;48.322;16.204;2022-08-21T16:33:45;0.77;;;0.70;;
25639;SDS011;13497;48.322;16.204;2022-08-21T16:36:15;1.23;;;0.93;;
25639;SDS011;13497;48.322;16.204;2022-08-21T16:38:40;1.67;;;0.90;;
25639;SDS011;13497;48.322;16.204;2022-08-21T16:41:08;2.35;;;1.17;;
25639;SDS011;13497;48.322;16.204;2022-08-21T16:43:36;1.15;;;1.00;;
25639;SDS011;13497;48.322;16.204;2022-08-21T16:46:04;2.35;;;1.15;;
25639;SDS011;13497;48.322;16.204;2022-08-21T16:48:30;1.40;;;1.02;;
25639;SDS011;13497;48.322;16.204;2022-08-21T16:50:56;1.30;;;1.20;;
25639;SDS011;13497;48.322;16.204;2022-08-21T16:53:22;1.20;;;0.80;;
25639;SDS011;13497;48.322;16.204;2022-08-21T16:55:49;1.27;;;0.90;;
25639;SDS011;13497;48.322;16.204;2022-08-21T17:00:52;2.40;;;1.10;;
25639;SDS011;13497;48.322;16.204;2022-08-21T17:05:45;0.98;;;0.73;;
25639;SDS011;13497;48.322;16.204;2022-08-21T17:08:12;1.58;;;1.00;;
25639;SDS011;13497;48.322;16.204;2022-08-21T17:10:38;0.85;;;0.77;;
25639;SDS011;13497;48.322;16.204;2022-08-21T17:13:10;0.85;;;0.70;;
25639;SDS011;13497;48.322;16.204;2022-08-21T17:15:36;0.85;;;0.82;;
25639;SDS011;13497;48.322;16.204;2022-08-21T17:20:29;1.30;;;1.20;;
25639;SDS011;13497;48.322;16.204;2022-08-21T17:22:55;2.35;;;1.13;;
25639;SDS011;13497;48.322;16.204;2022-08-21T17:25:21;0.90;;;0.88;;
25639;SDS011;13497;48.322;16.204;2022-08-21T17:27:48;1.27;;;1.00;;
25639;SDS011;13497;48.322;16.204;2022-08-21T17:30:14;1.40;;;1.05;;
25639;SDS011;13497;48.322;16.204;2022-08-21T17:35:07;0.82;;;0.80;;
25639;SDS011;13497;48.322;16.204;2022-08-21T17:37:33;1.48;;;1.02;;
25639;SDS011;13497;48.322;16.204;2022-08-21T17:40:00;5.40;;;0.88;;
25639;SDS011;13497;48.322;16.204;2022-08-21T17:42:29;0.65;;;0.65;;
25639;SDS011;13497;48.322;16.204;2022-08-21T17:44:55;0.98;;;0.90;;
25639;SDS011;13497;48.322;16.204;2022-08-21T17:47:21;1.25;;;1.02;;
25639;SDS011;13497;48.322;16.204;2022-08-21T17:49:48;0.95;;;0.90;;
25639;SDS011;13497;48.322;16.204;2022-08-21T17:52:14;1.25;;;0.80;;
25639;SDS011;13497;48.322;16.204;2022-08-21T17:54:39;1.70;;;1.10;;
25639;SDS011;13497;48.322;16.204;2022-08-21T17:57:05;1.47;;;1.23;;
25639;SDS011;13497;48.322;16.204;2022-08-21T17:59:32;2.45;;;1.30;;
25639;SDS011;13497;48.322;16.204;2022-08-21T18:01:59;1.35;;;1.25;;
25639;SDS011;13497;48.322;16.204;2022-08-21T18:04:27;1.25;;;1.00;;
25639;SDS011;13497;48.322;16.204;2022-08-21T18:06:54;4.32;;;1.20;;
25639;SDS011;13497;48.322;16.204;2022-08-21T18:09:20;1.40;;;1.17;;
25639;SDS011;13497;48.322;16.204;2022-08-21T18:11:47;1.10;;;1.00;;
25639;SDS011;13497;48.322;16.204;2022-08-21T18:16:39;0.90;;;0.90;;
25639;SDS011;13497;48.322;16.204;2022-08-21T18:19:10;1.63;;;1.10;;
25639;SDS011;13497;48.322;16.204;2022-08-21T18:21:39;2.97;;;1.10;;
25639;SDS011;13497;48.322;16.204;2022-08-21T18:24:05;3.10;;;1.10;;
25639;SDS011;13497;48.322;16.204;2022-08-21T18:26:32;1.17;;;1.08;;
25639;SDS011;13497;48.322;16.204;2022-08-21T18:29:00;2.58;;;0.98;;
25639;SDS011;13497;48.322;16.204;2022-08-21T18:31:29;0.85;;;0.82;;
25639;SDS011;13497;48.322;16.204;2022-08-21T18:33:57;0.90;;;0.70;;
25639;SDS011;13497;48.322;16.204;2022-08-21T18:36:26;1.52;;;1.05;;
25639;SDS011;13497;48.322;16.204;2022-08-21T18:38:53;0.73;;;0.73;;
25639;SDS011;13497;48.322;16.204;2022-08-21T18:41:19;0.88;;;0.75;;
25639;SDS011;13497;48.322;16.204;2022-08-21T18:43:45;1.42;;;1.33;;
25639;SDS011;13497;48.322;16.204;2022-08-21T18:46:12;1.60;;;1.00;;
25639;SDS011;13497;48.322;16.204;2022-08-21T18:51:05;2.15;;;1.10;;
25639;SDS011;13497;48.322;16.204;2022-08-21T18:53:30;1.80;;;1.10;;
25639;SDS011;13497;48.322;16.204;2022-08-21T18:55:56;2.95;;;1.10;;
25639;SDS011;13497;48.322;16.204;2022-08-21T18:58:22;1.02;;;0.82;;
25639;SDS011;13497;48.322;16.204;2022-08-21T19:00:48;1.55;;;1.05;;
25639;SDS011;13497;48.322;16.204;2022-08-21T19:03:16;1.10;;;0.82;;
25639;SDS011;13497;48.322;16.204;2022-08-21T19:05:44;3.67;;;1.10;;
25639;SDS011;13497;48.322;16.204;2022-08-21T19:08:11;0.98;;;0.90;;
25639;SDS011;13497;48.322;16.204;2022-08-21T19:10:40;2.20;;;1.25;;
25639;SDS011;13497;48.322;16.204;2022-08-21T19:13:08;1.45;;;1.13;;
25639;SDS011;13497;48.322;16.204;2022-08-21T19:15:36;3.33;;;1.00;;
25639;SDS011;13497;48.322;16.204;2022-08-21T19:18:04;2.85;;;1.25;;
25639;SDS011;13497;48.322;16.204;2022-08-21T19:20:34;1.48;;;1.10;;
25639;SDS011;13497;48.322;16.204;2022-08-21T19:23:01;1.10;;;1.00;;
25639;SDS011;13497;48.322;16.204;2022-08-21T19:25:29;1.08;;;0.90;;
25639;SDS011;13497;48.322;16.204;2022-08-21T19:27:55;1.42;;;0.93;;
25639;SDS011;13497;48.322;16.204;2022-08-21T19:30:21;1.20;;;1.10;;
25639;SDS011;13497;48.322;16.204;2022-08-21T19:32:47;1.20;;;1.10;;
25639;SDS011;13497;48.322;16.204;2022-08-21T19:35:14;2.33;;;1.20;;
25639;SDS011;13497;48.322;16.204;2022-08-21T19:37:42;1.58;;;1.20;;
25639;SDS011;13497;48.322;16.204;2022-08-21T19:40:08;1.23;;;1.13;;
25639;SDS011;13497;48.322;16.204;2022-08-21T19:42:36;1.70;;;1.30;;
25639;SDS011;13497;48.322;16.204;2022-08-21T19:45:03;1.73;;;1.08;;
25639;SDS011;13497;48.322;16.204;2022-08-21T19:47:30;1.50;;;1.13;;
25639;SDS011;13497;48.322;16.204;2022-08-21T19:49:58;1.13;;;1.02;;
25639;SDS011;13497;48.322;16.204;2022-08-21T19:52:24;3.03;;;1.33;;
25639;SDS011;13497;48.322;16.204;2022-08-21T19:54:51;1.63;;;1.52;;
25639;SDS011;13497;48.322;16.204;2022-08-21T19:57:17;2.42;;;1.55;;
25639;SDS011;13497;48.322;16.204;2022-08-21T19:59:43;1.67;;;1.40;;
25639;SDS011;13497;48.322;16.204;2022-08-21T20:04:36;1.48;;;1.38;;
25639;SDS011;13497;48.322;16.204;2022-08-21T20:07:02;1.70;;;1.35;;
25639;SDS011;13497;48.322;16.204;2022-08-21T20:09:28;1.73;;;1.30;;
25639;SDS011;13497;48.322;16.204;2022-08-21T20:11:55;1.50;;;1.30;;
25639;SDS011;13497;48.322;16.204;2022-08-21T20:14:24;1.75;;;1.55;;
25639;SDS011;13497;48.322;16.204;2022-08-21T20:16:52;1.60;;;1.50;;
25639;SDS011;13497;48.322;16.204;2022-08-21T20:19:20;1.70;;;1.60;;
25639;SDS011;13497;48.322;16.204;2022-08-21T20:21:46;3.03;;;1.35;;
25639;SDS011;13497;48.322;16.204;2022-08-21T20:24:12;1.85;;;1.48;;
25639;SDS011;13497;48.322;16.204;2022-08-21T20:29:05;1.57;;;1.47;;
25639;SDS011;13497;48.322;16.204;2022-08-21T20:31:31;1.65;;;1.40;;
25639;SDS011;13497;48.322;16.204;2022-08-21T20:33:57;2.20;;;1.40;;
25639;SDS011;13497;48.322;16.204;2022-08-21T20:36:24;2.55;;;1.90;;
25639;SDS011;13497;48.322;16.204;2022-08-21T20:38:50;1.40;;;1.30;;
25639;SDS011;13497;48.322;16.204;2022-08-21T20:41:19;1.80;;;1.20;;
25639;SDS011;13497;48.322;16.204;2022-08-21T20:43:48;1.40;;;1.30;;
25639;SDS011;13497;48.322;16.204;2022-08-21T20:46:15;1.63;;;1.52;;
25639;SDS011;13497;48.322;16.204;2022-08-21T20:48:45;1.80;;;1.52;;
25639;SDS011;13497;48.322;16.204;2022-08-21T20:51:22;1.75;;;1.50;;
25639;SDS011;13497;48.322;16.204;2022-08-21T20:53:58;2.42;;;1.67;;
25639;SDS011;13497;48.322;16.204;2022-08-21T21:07:33;1.35;;;1.10;;
25639;SDS011;13497;48.322;16.204;2022-08-21T21:10:00;1.30;;;1.17;;
25639;SDS011;13497;48.322;16.204;2022-08-21T21:12:31;1.10;;;1.00;;
25639;SDS011;13497;48.322;16.204;2022-08-21T21:15:08;2.00;;;1.38;;
25639;SDS011;13497;48.322;16.204;2022-08-21T21:17:49;1.65;;;1.27;;
25639;SDS011;13497;48.322;16.204;2022-08-21T21:20:40;1.05;;;0.90;;
25639;SDS011;13497;48.322;16.204;2022-08-21T21:23:17;1.20;;;1.10;;
25639;SDS011;13497;48.322;16.204;2022-08-21T21:25:58;1.15;;;0.90;;
25639;SDS011;13497;48.322;16.204;2022-08-21T21:28:41;1.10;;;1.00;;
25639;SDS011;13497;48.322;16.204;2022-08-21T21:31:08;1.10;;;1.00;;
25639;SDS011;13497;48.322;16.204;2022-08-21T21:33:36;3.92;;;1.02;;
25639;SDS011;13497;48.322;16.204;2022-08-21T21:36:07;1.30;;;1.20;;
25639;SDS011;13497;48.322;16.204;2022-08-21T21:38:52;1.10;;;1.00;;
25639;SDS011;13497;48.322;16.204;2022-08-21T21:41:51;1.20;;;1.10;;
25639;SDS011;13497;48.322;16.204;2022-08-21T21:49:57;1.50;;;1.23;;
25639;SDS011;13497;48.322;16.204;2022-08-21T21:52:35;1.52;;;1.30;;
25639;SDS011;13497;48.322;16.204;2022-08-21T21:55:25;1.25;;;0.88;;
25639;SDS011;13497;48.322;16.204;2022-08-21T22:00:57;2.15;;;1.30;;
25639;SDS011;13497;48.322;16.204;2022-08-21T22:09:20;1.60;;;1.50;;
25639;SDS011;13497;48.322;16.204;2022-08-21T22:11:57;2.20;;;1.75;;
25639;SDS011;13497;48.322;16.204;2022-08-21T22:14:39;1.23;;;0.98;;
25639;SDS011;13497;48.322;16.204;2022-08-21T22:20:03;1.67;;;1.40;;
25639;SDS011;13497;48.322;16.204;2022-08-21T22:22:32;1.60;;;1.50;;
25639;SDS011;13497;48.322;16.204;2022-08-21T22:25:02;1.55;;;1.10;;
25639;SDS011;13497;48.322;16.204;2022-08-21T22:27:34;2.00;;;1.45;;
25639;SDS011;13497;48.322;16.204;2022-08-21T22:30:04;2.13;;;1.52;;
25639;SDS011;13497;48.322;16.204;2022-08-21T22:32:37;1.40;;;1.17;;
25639;SDS011;13497;48.322;16.204;2022-08-21T22:35:22;1.80;;;1.30;;
25639;SDS011;13497;48.322;16.204;2022-08-21T22:37:55;2.00;;;1.45;;
25639;SDS011;13497;48.322;16.204;2022-08-21T22:42:56;1.50;;;1.40;;
25639;SDS011;13497;48.322;16.204;2022-08-21T22:45:31;1.65;;;1.55;;
25639;SDS011;13497;48.322;16.204;2022-08-21T22:48:17;1.65;;;1.08;;
25639;SDS011;13497;48.322;16.204;2022-08-21T22:50:45;1.90;;;1.70;;
25639;SDS011;13497;48.322;16.204;2022-08-21T22:53:21;5.63;;;1.52;;
25639;SDS011;13497;48.322;16.204;2022-08-21T22:55:54;1.55;;;1.42;;
25639;SDS011;13497;48.322;16.204;2022-08-21T22:58:24;1.67;;;1.45;;
25639;SDS011;13497;48.322;16.204;2022-08-21T23:00:58;2.10;;;1.90;;
25639;SDS011;13497;48.322;16.204;2022-08-21T23:03:48;2.38;;;1.77;;
25639;SDS011;13497;48.322;16.204;2022-08-21T23:08:59;1.80;;;1.52;;
25639;SDS011;13497;48.322;16.204;2022-08-21T23:14:05;2.17;;;1.98;;
25639;SDS011;13497;48.322;16.204;2022-08-21T23:24:41;2.03;;;1.75;;
25639;SDS011;13497;48.322;16.204;2022-08-21T23:41:14;2.17;;;1.95;;
25639;SDS011;13497;48.322;16.204;2022-08-21T23:50:05;2.08;;;1.88;;
25639;SDS011;13497;48.322;16.204;2022-08-21T23:55:40;2.03;;;1.70;;
